sensor_id;sensor_type;location;lat;lon;timestamp;P1;durP1;ratioP1;P2;durP2;ratioP2
23596;SDS011;40226;50.874;4.394;2023-07-31T00:02:14;0.30;;;0.30;;
23596;SDS011;40226;50.874;4.394;2023-07-31T00:04:40;0.40;;;0.40;;
23596;SDS011;40226;50.874;4.394;2023-07-31T00:07:06;1.05;;;1.02;;
23596;SDS011;40226;50.874;4.394;2023-07-31T00:09:32;0.43;;;0.40;;
23596;SDS011;40226;50.874;4.394;2023-07-31T00:11:58;0.40;;;0.40;;
23596;SDS011;40226;50.874;4.394;2023-07-31T00:14:24;3.70;;;0.90;;
23596;SDS011;40226;50.874;4.394;2023-07-31T00:16:49;0.63;;;0.45;;
23596;SDS011;40226;50.874;4.394;2023-07-31T00:19:15;2.05;;;1.27;;
23596;SDS011;40226;50.874;4.394;2023-07-31T00:21:40;0.22;;;0.13;;
23596;SDS011;40226;50.874;4.394;2023-07-31T00:24:06;0.98;;;0.60;;
23596;SDS011;40226;50.874;4.394;2023-07-31T00:26:31;3.35;;;1.23;;
23596;SDS011;40226;50.874;4.394;2023-07-31T00:28:57;27.42;;;7.53;;
23596;SDS011;40226;50.874;4.394;2023-07-31T00:31:23;21.95;;;7.15;;
23596;SDS011;40226;50.874;4.394;2023-07-31T00:33:48;23.00;;;7.07;;
23596;SDS011;40226;50.874;4.394;2023-07-31T00:36:14;25.30;;;7.88;;
23596;SDS011;40226;50.874;4.394;2023-07-31T00:38:39;26.20;;;7.28;;
23596;SDS011;40226;50.874;4.394;2023-07-31T00:41:05;20.75;;;6.75;;
23596;SDS011;40226;50.874;4.394;2023-07-31T00:43:30;21.38;;;6.95;;
23596;SDS011;40226;50.874;4.394;2023-07-31T00:45:56;26.73;;;7.55;;
23596;SDS011;40226;50.874;4.394;2023-07-31T00:48:22;20.55;;;7.40;;
23596;SDS011;40226;50.874;4.394;2023-07-31T00:50:48;23.50;;;7.60;;
23596;SDS011;40226;50.874;4.394;2023-07-31T00:53:14;25.10;;;7.57;;
23596;SDS011;40226;50.874;4.394;2023-07-31T00:55:40;19.85;;;7.45;;
23596;SDS011;40226;50.874;4.394;2023-07-31T00:58:06;26.10;;;8.57;;
23596;SDS011;40226;50.874;4.394;2023-07-31T01:00:31;22.77;;;7.43;;
23596;SDS011;40226;50.874;4.394;2023-07-31T01:02:57;20.15;;;6.55;;
23596;SDS011;40226;50.874;4.394;2023-07-31T01:05:36;19.38;;;7.07;;
23596;SDS011;40226;50.874;4.394;2023-07-31T01:10:29;21.52;;;7.65;;
23596;SDS011;40226;50.874;4.394;2023-07-31T01:13:00;21.40;;;7.32;;
23596;SDS011;40226;50.874;4.394;2023-07-31T01:15:26;17.85;;;7.03;;
23596;SDS011;40226;50.874;4.394;2023-07-31T01:17:52;20.05;;;7.00;;
23596;SDS011;40226;50.874;4.394;2023-07-31T01:20:21;24.45;;;7.10;;
23596;SDS011;40226;50.874;4.394;2023-07-31T01:31:21;21.65;;;6.68;;
23596;SDS011;40226;50.874;4.394;2023-07-31T01:33:49;18.75;;;6.78;;
23596;SDS011;40226;50.874;4.394;2023-07-31T01:36:17;18.30;;;6.85;;
23596;SDS011;40226;50.874;4.394;2023-07-31T01:38:43;16.40;;;6.78;;
23596;SDS011;40226;50.874;4.394;2023-07-31T01:41:09;21.10;;;6.80;;
23596;SDS011;40226;50.874;4.394;2023-07-31T01:43:34;22.55;;;7.45;;
23596;SDS011;40226;50.874;4.394;2023-07-31T01:46:01;18.75;;;7.28;;
23596;SDS011;40226;50.874;4.394;2023-07-31T01:48:27;18.33;;;7.55;;
23596;SDS011;40226;50.874;4.394;2023-07-31T01:50:53;23.17;;;7.75;;
23596;SDS011;40226;50.874;4.394;2023-07-31T01:53:18;19.55;;;7.57;;
23596;SDS011;40226;50.874;4.394;2023-07-31T01:55:44;24.30;;;7.95;;
23596;SDS011;40226;50.874;4.394;2023-07-31T01:58:09;16.27;;;7.75;;
23596;SDS011;40226;50.874;4.394;2023-07-31T02:00:35;18.25;;;7.07;;
23596;SDS011;40226;50.874;4.394;2023-07-31T02:03:00;17.58;;;7.05;;
23596;SDS011;40226;50.874;4.394;2023-07-31T02:05:26;18.17;;;7.13;;
23596;SDS011;40226;50.874;4.394;2023-07-31T02:07:52;18.13;;;7.35;;
23596;SDS011;40226;50.874;4.394;2023-07-31T02:10:17;17.90;;;6.50;;
23596;SDS011;40226;50.874;4.394;2023-07-31T02:12:43;17.35;;;7.25;;
23596;SDS011;40226;50.874;4.394;2023-07-31T02:15:08;19.63;;;7.90;;
23596;SDS011;40226;50.874;4.394;2023-07-31T02:17:34;18.73;;;7.50;;
23596;SDS011;40226;50.874;4.394;2023-07-31T02:20:00;14.73;;;7.25;;
23596;SDS011;40226;50.874;4.394;2023-07-31T02:22:25;18.05;;;8.10;;
23596;SDS011;40226;50.874;4.394;2023-07-31T02:24:51;18.23;;;7.80;;
23596;SDS011;40226;50.874;4.394;2023-07-31T02:27:16;19.08;;;7.75;;
23596;SDS011;40226;50.874;4.394;2023-07-31T02:29:42;17.73;;;8.25;;
23596;SDS011;40226;50.874;4.394;2023-07-31T02:32:07;17.67;;;7.75;;
23596;SDS011;40226;50.874;4.394;2023-07-31T02:34:33;19.92;;;8.70;;
23596;SDS011;40226;50.874;4.394;2023-07-31T02:36:59;15.88;;;7.80;;
23596;SDS011;40226;50.874;4.394;2023-07-31T02:39:24;19.35;;;9.32;;
23596;SDS011;40226;50.874;4.394;2023-07-31T02:41:50;17.00;;;7.07;;
23596;SDS011;40226;50.874;4.394;2023-07-31T02:44:15;15.52;;;7.57;;
23596;SDS011;40226;50.874;4.394;2023-07-31T02:46:41;14.30;;;7.72;;
23596;SDS011;40226;50.874;4.394;2023-07-31T02:49:06;13.35;;;6.78;;
23596;SDS011;40226;50.874;4.394;2023-07-31T02:51:32;16.55;;;8.02;;
23596;SDS011;40226;50.874;4.394;2023-07-31T02:53:57;15.15;;;7.13;;
23596;SDS011;40226;50.874;4.394;2023-07-31T02:56:23;11.93;;;6.75;;
23596;SDS011;40226;50.874;4.394;2023-07-31T02:58:48;12.98;;;6.90;;
23596;SDS011;40226;50.874;4.394;2023-07-31T03:01:14;14.82;;;6.95;;
23596;SDS011;40226;50.874;4.394;2023-07-31T03:03:40;17.48;;;6.57;;
23596;SDS011;40226;50.874;4.394;2023-07-31T03:06:06;17.40;;;7.18;;
23596;SDS011;40226;50.874;4.394;2023-07-31T03:08:32;14.38;;;7.25;;
23596;SDS011;40226;50.874;4.394;2023-07-31T03:10:57;12.23;;;6.25;;
23596;SDS011;40226;50.874;4.394;2023-07-31T03:13:23;15.20;;;7.03;;
23596;SDS011;40226;50.874;4.394;2023-07-31T03:15:48;15.27;;;6.93;;
23596;SDS011;40226;50.874;4.394;2023-07-31T03:18:14;14.27;;;7.07;;
23596;SDS011;40226;50.874;4.394;2023-07-31T03:20:43;10.02;;;6.10;;
23596;SDS011;40226;50.874;4.394;2023-07-31T03:23:09;12.85;;;5.88;;
23596;SDS011;40226;50.874;4.394;2023-07-31T03:25:34;12.02;;;6.60;;
23596;SDS011;40226;50.874;4.394;2023-07-31T03:28:00;15.98;;;6.78;;
23596;SDS011;40226;50.874;4.394;2023-07-31T03:30:26;11.95;;;6.60;;
23596;SDS011;40226;50.874;4.394;2023-07-31T03:32:51;12.80;;;6.30;;
23596;SDS011;40226;50.874;4.394;2023-07-31T03:35:17;17.92;;;7.53;;
23596;SDS011;40226;50.874;4.394;2023-07-31T03:37:42;14.82;;;6.97;;
23596;SDS011;40226;50.874;4.394;2023-07-31T03:40:08;13.32;;;7.22;;
23596;SDS011;40226;50.874;4.394;2023-07-31T03:42:34;11.80;;;7.03;;
23596;SDS011;40226;50.874;4.394;2023-07-31T03:45:00;12.75;;;6.18;;
23596;SDS011;40226;50.874;4.394;2023-07-31T03:47:26;15.13;;;7.80;;
23596;SDS011;40226;50.874;4.394;2023-07-31T03:49:51;21.90;;;7.57;;
23596;SDS011;40226;50.874;4.394;2023-07-31T03:52:17;15.25;;;7.30;;
23596;SDS011;40226;50.874;4.394;2023-07-31T03:54:42;14.73;;;7.32;;
23596;SDS011;40226;50.874;4.394;2023-07-31T03:57:09;15.70;;;7.60;;
23596;SDS011;40226;50.874;4.394;2023-07-31T03:59:35;13.85;;;7.55;;
23596;SDS011;40226;50.874;4.394;2023-07-31T04:02:03;16.48;;;8.50;;
23596;SDS011;40226;50.874;4.394;2023-07-31T04:04:29;17.08;;;8.38;;
23596;SDS011;40226;50.874;4.394;2023-07-31T04:06:54;16.05;;;8.27;;
23596;SDS011;40226;50.874;4.394;2023-07-31T04:09:20;19.60;;;7.72;;
23596;SDS011;40226;50.874;4.394;2023-07-31T04:11:45;15.00;;;7.47;;
23596;SDS011;40226;50.874;4.394;2023-07-31T04:14:11;15.48;;;7.25;;
23596;SDS011;40226;50.874;4.394;2023-07-31T04:16:36;1.92;;;1.33;;
23596;SDS011;40226;50.874;4.394;2023-07-31T04:19:02;0.20;;;0.20;;
23596;SDS011;40226;50.874;4.394;2023-07-31T04:21:28;0.40;;;0.40;;
23596;SDS011;40226;50.874;4.394;2023-07-31T04:23:54;0.95;;;0.60;;
23596;SDS011;40226;50.874;4.394;2023-07-31T04:26:21;2.03;;;1.15;;
23596;SDS011;40226;50.874;4.394;2023-07-31T04:28:47;0.22;;;0.22;;
23596;SDS011;40226;50.874;4.394;2023-07-31T04:31:12;1.30;;;0.82;;
23596;SDS011;40226;50.874;4.394;2023-07-31T04:33:38;0.98;;;0.52;;
23596;SDS011;40226;50.874;4.394;2023-07-31T04:36:04;0.30;;;0.30;;
23596;SDS011;40226;50.874;4.394;2023-07-31T04:38:30;0.38;;;0.38;;
23596;SDS011;40226;50.874;4.394;2023-07-31T04:40:55;0.52;;;0.52;;
23596;SDS011;40226;50.874;4.394;2023-07-31T04:43:21;0.68;;;0.68;;
23596;SDS011;40226;50.874;4.394;2023-07-31T04:45:46;0.45;;;0.45;;
23596;SDS011;40226;50.874;4.394;2023-07-31T04:48:15;8.15;;;1.20;;
23596;SDS011;40226;50.874;4.394;2023-07-31T04:50:41;0.40;;;0.40;;
23596;SDS011;40226;50.874;4.394;2023-07-31T04:53:06;0.47;;;0.47;;
23596;SDS011;40226;50.874;4.394;2023-07-31T04:55:32;0.40;;;0.40;;
23596;SDS011;40226;50.874;4.394;2023-07-31T04:57:58;0.38;;;0.38;;
23596;SDS011;40226;50.874;4.394;2023-07-31T05:00:24;1.33;;;0.65;;
23596;SDS011;40226;50.874;4.394;2023-07-31T05:02:50;0.20;;;0.20;;
23596;SDS011;40226;50.874;4.394;2023-07-31T05:05:15;0.32;;;0.30;;
23596;SDS011;40226;50.874;4.394;2023-07-31T05:07:41;0.40;;;0.40;;
23596;SDS011;40226;50.874;4.394;2023-07-31T05:10:07;0.75;;;0.55;;
23596;SDS011;40226;50.874;4.394;2023-07-31T05:12:33;0.10;;;0.10;;
23596;SDS011;40226;50.874;4.394;2023-07-31T05:14:59;0.93;;;0.80;;
23596;SDS011;40226;50.874;4.394;2023-07-31T05:17:24;0.85;;;0.55;;
23596;SDS011;40226;50.874;4.394;2023-07-31T05:19:50;0.95;;;0.60;;
23596;SDS011;40226;50.874;4.394;2023-07-31T05:22:16;2.05;;;1.27;;
23596;SDS011;40226;50.874;4.394;2023-07-31T05:24:42;1.30;;;0.50;;
23596;SDS011;40226;50.874;4.394;2023-07-31T05:27:07;0.93;;;0.80;;
23596;SDS011;40226;50.874;4.394;2023-07-31T05:29:34;0.88;;;0.88;;
23596;SDS011;40226;50.874;4.394;2023-07-31T05:32:00;0.88;;;0.40;;
23596;SDS011;40226;50.874;4.394;2023-07-31T05:34:26;1.17;;;0.85;;
23596;SDS011;40226;50.874;4.394;2023-07-31T05:36:51;0.77;;;0.77;;
23596;SDS011;40226;50.874;4.394;2023-07-31T05:39:17;0.40;;;0.40;;
23596;SDS011;40226;50.874;4.394;2023-07-31T05:41:44;0.05;;;0.05;;
23596;SDS011;40226;50.874;4.394;2023-07-31T05:44:10;0.20;;;0.20;;
23596;SDS011;40226;50.874;4.394;2023-07-31T05:46:36;0.20;;;0.20;;
23596;SDS011;40226;50.874;4.394;2023-07-31T05:49:02;0.25;;;0.25;;
23596;SDS011;40226;50.874;4.394;2023-07-31T05:51:27;2.00;;;0.90;;
23596;SDS011;40226;50.874;4.394;2023-07-31T05:53:53;0.32;;;0.17;;
23596;SDS011;40226;50.874;4.394;2023-07-31T05:56:18;0.13;;;0.13;;
23596;SDS011;40226;50.874;4.394;2023-07-31T05:58:44;0.52;;;0.52;;
23596;SDS011;40226;50.874;4.394;2023-07-31T06:01:10;0.10;;;0.10;;
23596;SDS011;40226;50.874;4.394;2023-07-31T06:03:35;0.50;;;0.50;;
23596;SDS011;40226;50.874;4.394;2023-07-31T06:06:01;0.05;;;0.05;;
23596;SDS011;40226;50.874;4.394;2023-07-31T06:08:26;0.20;;;0.20;;
23596;SDS011;40226;50.874;4.394;2023-07-31T06:10:52;1.40;;;0.05;;
23596;SDS011;40226;50.874;4.394;2023-07-31T06:13:18;0.52;;;0.52;;
23596;SDS011;40226;50.874;4.394;2023-07-31T06:15:43;0.15;;;0.15;;
23596;SDS011;40226;50.874;4.394;2023-07-31T06:18:09;0.22;;;0.20;;
23596;SDS011;40226;50.874;4.394;2023-07-31T06:20:35;0.38;;;0.35;;
23596;SDS011;40226;50.874;4.394;2023-07-31T06:23:01;1.38;;;1.27;;
23596;SDS011;40226;50.874;4.394;2023-07-31T06:25:28;0.13;;;0.13;;
23596;SDS011;40226;50.874;4.394;2023-07-31T06:27:54;0.25;;;0.25;;
23596;SDS011;40226;50.874;4.394;2023-07-31T06:30:19;0.03;;;0.03;;
23596;SDS011;40226;50.874;4.394;2023-07-31T06:32:45;0.00;;;0.00;;
23596;SDS011;40226;50.874;4.394;2023-07-31T06:35:10;0.45;;;0.45;;
23596;SDS011;40226;50.874;4.394;2023-07-31T06:37:36;2.40;;;1.35;;
23596;SDS011;40226;50.874;4.394;2023-07-31T06:40:05;0.28;;;0.28;;
23596;SDS011;40226;50.874;4.394;2023-07-31T06:42:32;2.45;;;1.45;;
23596;SDS011;40226;50.874;4.394;2023-07-31T06:44:58;0.10;;;0.10;;
23596;SDS011;40226;50.874;4.394;2023-07-31T06:47:23;0.55;;;0.55;;
23596;SDS011;40226;50.874;4.394;2023-07-31T06:49:49;0.85;;;0.43;;
23596;SDS011;40226;50.874;4.394;2023-07-31T06:52:15;0.43;;;0.43;;
23596;SDS011;40226;50.874;4.394;2023-07-31T06:54:40;0.38;;;0.38;;
23596;SDS011;40226;50.874;4.394;2023-07-31T06:57:06;0.30;;;0.30;;
23596;SDS011;40226;50.874;4.394;2023-07-31T06:59:33;0.22;;;0.22;;
23596;SDS011;40226;50.874;4.394;2023-07-31T07:01:58;0.85;;;0.68;;
23596;SDS011;40226;50.874;4.394;2023-07-31T07:04:24;0.68;;;0.38;;
23596;SDS011;40226;50.874;4.394;2023-07-31T07:06:51;0.55;;;0.55;;
23596;SDS011;40226;50.874;4.394;2023-07-31T07:09:17;0.00;;;0.00;;
23596;SDS011;40226;50.874;4.394;2023-07-31T07:11:43;3.10;;;0.45;;
23596;SDS011;40226;50.874;4.394;2023-07-31T07:14:08;1.20;;;0.55;;
23596;SDS011;40226;50.874;4.394;2023-07-31T07:16:35;0.95;;;0.80;;
23596;SDS011;40226;50.874;4.394;2023-07-31T07:19:00;20.80;;;1.10;;
23596;SDS011;40226;50.874;4.394;2023-07-31T07:21:26;1.35;;;0.85;;
23596;SDS011;40226;50.874;4.394;2023-07-31T07:23:51;0.00;;;0.00;;
23596;SDS011;40226;50.874;4.394;2023-07-31T07:26:17;0.43;;;0.43;;
23596;SDS011;40226;50.874;4.394;2023-07-31T07:28:42;3.55;;;1.27;;
23596;SDS011;40226;50.874;4.394;2023-07-31T07:31:08;0.17;;;0.17;;
23596;SDS011;40226;50.874;4.394;2023-07-31T07:33:33;0.20;;;0.20;;
23596;SDS011;40226;50.874;4.394;2023-07-31T07:36:00;0.30;;;0.30;;
23596;SDS011;40226;50.874;4.394;2023-07-31T07:38:26;0.10;;;0.10;;
23596;SDS011;40226;50.874;4.394;2023-07-31T07:40:52;0.40;;;0.40;;
23596;SDS011;40226;50.874;4.394;2023-07-31T07:43:18;0.10;;;0.10;;
23596;SDS011;40226;50.874;4.394;2023-07-31T07:45:44;0.63;;;0.57;;
23596;SDS011;40226;50.874;4.394;2023-07-31T07:48:09;0.28;;;0.28;;
23596;SDS011;40226;50.874;4.394;2023-07-31T07:50:35;0.32;;;0.28;;
23596;SDS011;40226;50.874;4.394;2023-07-31T07:53:03;0.40;;;0.40;;
23596;SDS011;40226;50.874;4.394;2023-07-31T07:55:28;0.43;;;0.30;;
23596;SDS011;40226;50.874;4.394;2023-07-31T07:57:54;0.50;;;0.47;;
23596;SDS011;40226;50.874;4.394;2023-07-31T08:00:19;0.65;;;0.40;;
23596;SDS011;40226;50.874;4.394;2023-07-31T08:02:45;0.20;;;0.20;;
23596;SDS011;40226;50.874;4.394;2023-07-31T08:05:11;0.60;;;0.60;;
23596;SDS011;40226;50.874;4.394;2023-07-31T08:07:37;0.40;;;0.40;;
23596;SDS011;40226;50.874;4.394;2023-07-31T08:10:02;0.15;;;0.15;;
23596;SDS011;40226;50.874;4.394;2023-07-31T08:12:28;0.30;;;0.20;;
23596;SDS011;40226;50.874;4.394;2023-07-31T08:14:53;4.43;;;1.42;;
23596;SDS011;40226;50.874;4.394;2023-07-31T08:17:19;0.47;;;0.35;;
23596;SDS011;40226;50.874;4.394;2023-07-31T08:19:45;0.57;;;0.57;;
23596;SDS011;40226;50.874;4.394;2023-07-31T08:22:11;0.85;;;0.40;;
23596;SDS011;40226;50.874;4.394;2023-07-31T08:24:36;0.10;;;0.10;;
23596;SDS011;40226;50.874;4.394;2023-07-31T08:27:02;1.52;;;0.47;;
23596;SDS011;40226;50.874;4.394;2023-07-31T08:29:28;0.43;;;0.40;;
23596;SDS011;40226;50.874;4.394;2023-07-31T08:31:53;3.30;;;0.98;;
23596;SDS011;40226;50.874;4.394;2023-07-31T08:34:19;0.20;;;0.20;;
23596;SDS011;40226;50.874;4.394;2023-07-31T08:36:44;0.10;;;0.10;;
23596;SDS011;40226;50.874;4.394;2023-07-31T08:39:10;0.43;;;0.43;;
23596;SDS011;40226;50.874;4.394;2023-07-31T08:41:38;5.28;;;1.27;;
23596;SDS011;40226;50.874;4.394;2023-07-31T08:44:04;0.52;;;0.43;;
23596;SDS011;40226;50.874;4.394;2023-07-31T08:46:32;0.00;;;0.00;;
23596;SDS011;40226;50.874;4.394;2023-07-31T08:48:58;0.20;;;0.20;;
23596;SDS011;40226;50.874;4.394;2023-07-31T08:51:25;0.10;;;0.10;;
23596;SDS011;40226;50.874;4.394;2023-07-31T08:53:52;9.98;;;0.90;;
23596;SDS011;40226;50.874;4.394;2023-07-31T08:56:18;0.32;;;0.32;;
23596;SDS011;40226;50.874;4.394;2023-07-31T08:58:44;0.93;;;0.93;;
23596;SDS011;40226;50.874;4.394;2023-07-31T09:01:12;3.47;;;1.80;;
23596;SDS011;40226;50.874;4.394;2023-07-31T09:03:38;11.20;;;4.93;;
23596;SDS011;40226;50.874;4.394;2023-07-31T09:06:05;11.02;;;4.88;;
23596;SDS011;40226;50.874;4.394;2023-07-31T09:08:31;12.80;;;5.15;;
23596;SDS011;40226;50.874;4.394;2023-07-31T09:11:01;14.20;;;5.50;;
23596;SDS011;40226;50.874;4.394;2023-07-31T09:13:31;16.88;;;6.07;;
23596;SDS011;40226;50.874;4.394;2023-07-31T09:15:57;10.05;;;5.43;;
23596;SDS011;40226;50.874;4.394;2023-07-31T09:18:23;11.57;;;5.20;;
23596;SDS011;40226;50.874;4.394;2023-07-31T09:21:04;15.25;;;4.97;;
23596;SDS011;40226;50.874;4.394;2023-07-31T09:23:46;14.18;;;4.93;;
23596;SDS011;40226;50.874;4.394;2023-07-31T09:26:30;10.70;;;5.30;;
23596;SDS011;40226;50.874;4.394;2023-07-31T09:29:01;12.85;;;5.13;;
23596;SDS011;40226;50.874;4.394;2023-07-31T09:31:33;12.70;;;5.50;;
23596;SDS011;40226;50.874;4.394;2023-07-31T09:34:07;12.32;;;5.28;;
23596;SDS011;40226;50.874;4.394;2023-07-31T09:36:39;13.80;;;5.47;;
23596;SDS011;40226;50.874;4.394;2023-07-31T09:39:07;15.57;;;5.68;;
23596;SDS011;40226;50.874;4.394;2023-07-31T09:41:42;11.23;;;5.20;;
23596;SDS011;40226;50.874;4.394;2023-07-31T09:44:10;13.75;;;5.70;;
23596;SDS011;40226;50.874;4.394;2023-07-31T09:46:36;12.07;;;5.57;;
23596;SDS011;40226;50.874;4.394;2023-07-31T09:49:13;13.50;;;6.20;;
23596;SDS011;40226;50.874;4.394;2023-07-31T09:51:39;14.57;;;5.85;;
23596;SDS011;40226;50.874;4.394;2023-07-31T09:54:10;16.00;;;6.45;;
23596;SDS011;40226;50.874;4.394;2023-07-31T09:56:39;14.80;;;7.05;;
23596;SDS011;40226;50.874;4.394;2023-07-31T09:59:11;16.83;;;7.03;;
23596;SDS011;40226;50.874;4.394;2023-07-31T10:01:38;18.88;;;6.93;;
23596;SDS011;40226;50.874;4.394;2023-07-31T10:04:08;12.65;;;6.75;;
23596;SDS011;40226;50.874;4.394;2023-07-31T10:06:35;17.55;;;8.13;;
23596;SDS011;40226;50.874;4.394;2023-07-31T10:09:04;16.52;;;7.13;;
23596;SDS011;40226;50.874;4.394;2023-07-31T10:11:32;17.83;;;7.43;;
23596;SDS011;40226;50.874;4.394;2023-07-31T10:14:02;18.27;;;7.47;;
23596;SDS011;40226;50.874;4.394;2023-07-31T10:16:29;18.88;;;7.88;;
23596;SDS011;40226;50.874;4.394;2023-07-31T10:18:56;20.65;;;8.10;;
23596;SDS011;40226;50.874;4.394;2023-07-31T10:21:23;15.10;;;7.97;;
23596;SDS011;40226;50.874;4.394;2023-07-31T10:23:48;18.15;;;8.32;;
23596;SDS011;40226;50.874;4.394;2023-07-31T10:26:16;16.55;;;7.53;;
23596;SDS011;40226;50.874;4.394;2023-07-31T10:28:44;16.05;;;7.55;;
23596;SDS011;40226;50.874;4.394;2023-07-31T10:31:11;15.70;;;7.43;;
23596;SDS011;40226;50.874;4.394;2023-07-31T10:33:38;15.95;;;7.30;;
23596;SDS011;40226;50.874;4.394;2023-07-31T10:36:14;14.93;;;7.60;;
23596;SDS011;40226;50.874;4.394;2023-07-31T10:38:43;16.45;;;6.68;;
23596;SDS011;40226;50.874;4.394;2023-07-31T10:41:09;17.10;;;7.03;;
23596;SDS011;40226;50.874;4.394;2023-07-31T10:43:36;17.83;;;7.78;;
23596;SDS011;40226;50.874;4.394;2023-07-31T10:46:09;15.15;;;7.38;;
23596;SDS011;40226;50.874;4.394;2023-07-31T10:48:38;15.30;;;6.78;;
23596;SDS011;40226;50.874;4.394;2023-07-31T10:51:09;13.68;;;6.50;;
23596;SDS011;40226;50.874;4.394;2023-07-31T10:53:41;16.02;;;7.05;;
23596;SDS011;40226;50.874;4.394;2023-07-31T10:56:07;12.63;;;6.57;;
23596;SDS011;40226;50.874;4.394;2023-07-31T10:58:34;20.58;;;6.50;;
23596;SDS011;40226;50.874;4.394;2023-07-31T11:01:01;14.88;;;6.32;;
23596;SDS011;40226;50.874;4.394;2023-07-31T11:03:45;17.17;;;6.80;;
23596;SDS011;40226;50.874;4.394;2023-07-31T11:06:13;14.35;;;6.97;;
23596;SDS011;40226;50.874;4.394;2023-07-31T11:08:43;17.90;;;7.03;;
23596;SDS011;40226;50.874;4.394;2023-07-31T11:11:13;14.32;;;5.45;;
23596;SDS011;40226;50.874;4.394;2023-07-31T11:16:11;17.45;;;6.13;;
23596;SDS011;40226;50.874;4.394;2023-07-31T11:18:41;13.70;;;6.75;;
23596;SDS011;40226;50.874;4.394;2023-07-31T11:21:14;14.65;;;6.68;;
23596;SDS011;40226;50.874;4.394;2023-07-31T11:23:45;14.18;;;6.28;;
23596;SDS011;40226;50.874;4.394;2023-07-31T11:26:11;15.27;;;5.93;;
23596;SDS011;40226;50.874;4.394;2023-07-31T11:28:37;13.85;;;6.15;;
23596;SDS011;40226;50.874;4.394;2023-07-31T11:31:03;19.67;;;6.50;;
23596;SDS011;40226;50.874;4.394;2023-07-31T11:33:29;12.98;;;5.88;;
23596;SDS011;40226;50.874;4.394;2023-07-31T11:35:55;13.68;;;6.80;;
23596;SDS011;40226;50.874;4.394;2023-07-31T11:38:26;14.93;;;6.80;;
23596;SDS011;40226;50.874;4.394;2023-07-31T11:40:53;16.15;;;6.88;;
23596;SDS011;40226;50.874;4.394;2023-07-31T11:43:27;13.98;;;6.35;;
23596;SDS011;40226;50.874;4.394;2023-07-31T11:45:54;14.80;;;6.63;;
23596;SDS011;40226;50.874;4.394;2023-07-31T11:48:21;19.38;;;6.93;;
23596;SDS011;40226;50.874;4.394;2023-07-31T11:50:52;13.65;;;6.78;;
23596;SDS011;40226;50.874;4.394;2023-07-31T11:53:25;13.70;;;7.07;;
23596;SDS011;40226;50.874;4.394;2023-07-31T11:55:52;17.67;;;7.13;;
23596;SDS011;40226;50.874;4.394;2023-07-31T11:58:18;15.57;;;6.45;;
23596;SDS011;40226;50.874;4.394;2023-07-31T12:00:44;14.60;;;7.18;;
23596;SDS011;40226;50.874;4.394;2023-07-31T12:03:11;15.55;;;6.50;;
23596;SDS011;40226;50.874;4.394;2023-07-31T12:05:37;12.93;;;6.68;;
23596;SDS011;40226;50.874;4.394;2023-07-31T12:08:05;13.00;;;6.63;;
23596;SDS011;40226;50.874;4.394;2023-07-31T12:10:34;13.93;;;6.35;;
23596;SDS011;40226;50.874;4.394;2023-07-31T12:13:01;11.43;;;5.28;;
23596;SDS011;40226;50.874;4.394;2023-07-31T12:18:04;14.15;;;6.38;;
23596;SDS011;40226;50.874;4.394;2023-07-31T12:20:34;16.92;;;6.80;;
23596;SDS011;40226;50.874;4.394;2023-07-31T12:23:01;14.60;;;6.47;;
23596;SDS011;40226;50.874;4.394;2023-07-31T12:25:31;17.10;;;6.20;;
23596;SDS011;40226;50.874;4.394;2023-07-31T12:27:57;10.75;;;5.70;;
23596;SDS011;40226;50.874;4.394;2023-07-31T12:30:27;12.93;;;5.80;;
23596;SDS011;40226;50.874;4.394;2023-07-31T12:32:53;15.98;;;6.35;;
23596;SDS011;40226;50.874;4.394;2023-07-31T12:35:19;16.85;;;6.30;;
23596;SDS011;40226;50.874;4.394;2023-07-31T12:37:44;11.27;;;5.75;;
23596;SDS011;40226;50.874;4.394;2023-07-31T12:40:10;15.38;;;6.45;;
23596;SDS011;40226;50.874;4.394;2023-07-31T12:42:36;12.07;;;5.93;;
23596;SDS011;40226;50.874;4.394;2023-07-31T12:45:02;16.45;;;6.22;;
23596;SDS011;40226;50.874;4.394;2023-07-31T12:47:28;11.00;;;6.40;;
23596;SDS011;40226;50.874;4.394;2023-07-31T12:49:54;13.13;;;6.00;;
23596;SDS011;40226;50.874;4.394;2023-07-31T12:52:20;12.52;;;5.72;;
23596;SDS011;40226;50.874;4.394;2023-07-31T12:54:46;13.10;;;5.95;;
23596;SDS011;40226;50.874;4.394;2023-07-31T12:57:11;14.65;;;5.60;;
23596;SDS011;40226;50.874;4.394;2023-07-31T12:59:37;12.85;;;6.22;;
23596;SDS011;40226;50.874;4.394;2023-07-31T13:02:02;14.20;;;5.82;;
23596;SDS011;40226;50.874;4.394;2023-07-31T13:04:28;11.52;;;4.90;;
23596;SDS011;40226;50.874;4.394;2023-07-31T13:06:53;10.70;;;5.25;;
23596;SDS011;40226;50.874;4.394;2023-07-31T13:09:19;13.68;;;5.10;;
23596;SDS011;40226;50.874;4.394;2023-07-31T13:11:45;10.43;;;4.22;;
23596;SDS011;40226;50.874;4.394;2023-07-31T13:14:10;11.07;;;3.75;;
23596;SDS011;40226;50.874;4.394;2023-07-31T13:16:37;10.65;;;4.47;;
23596;SDS011;40226;50.874;4.394;2023-07-31T13:19:02;8.38;;;3.90;;
23596;SDS011;40226;50.874;4.394;2023-07-31T13:21:28;7.35;;;4.07;;
23596;SDS011;40226;50.874;4.394;2023-07-31T13:23:54;8.50;;;4.30;;
23596;SDS011;40226;50.874;4.394;2023-07-31T13:26:22;11.77;;;4.80;;
23596;SDS011;40226;50.874;4.394;2023-07-31T13:28:48;11.02;;;4.65;;
23596;SDS011;40226;50.874;4.394;2023-07-31T13:31:13;9.18;;;4.50;;
23596;SDS011;40226;50.874;4.394;2023-07-31T13:33:39;2.67;;;1.27;;
23596;SDS011;40226;50.874;4.394;2023-07-31T13:36:05;0.32;;;0.32;;
23596;SDS011;40226;50.874;4.394;2023-07-31T13:38:30;0.10;;;0.10;;
23596;SDS011;40226;50.874;4.394;2023-07-31T13:40:56;2.13;;;0.80;;
23596;SDS011;40226;50.874;4.394;2023-07-31T13:43:21;0.63;;;0.63;;
23596;SDS011;40226;50.874;4.394;2023-07-31T13:45:47;1.85;;;0.40;;
23596;SDS011;40226;50.874;4.394;2023-07-31T13:48:12;1.67;;;1.15;;
23596;SDS011;40226;50.874;4.394;2023-07-31T13:50:38;0.70;;;0.70;;
23596;SDS011;40226;50.874;4.394;2023-07-31T13:53:03;0.13;;;0.13;;
23596;SDS011;40226;50.874;4.394;2023-07-31T13:55:29;0.70;;;0.70;;
23596;SDS011;40226;50.874;4.394;2023-07-31T13:57:54;0.22;;;0.22;;
23596;SDS011;40226;50.874;4.394;2023-07-31T14:00:20;0.90;;;0.82;;
23596;SDS011;40226;50.874;4.394;2023-07-31T14:02:46;0.15;;;0.15;;
23596;SDS011;40226;50.874;4.394;2023-07-31T14:05:11;2.97;;;0.65;;
23596;SDS011;40226;50.874;4.394;2023-07-31T14:07:37;0.85;;;0.85;;
23596;SDS011;40226;50.874;4.394;2023-07-31T14:10:02;1.08;;;0.90;;
23596;SDS011;40226;50.874;4.394;2023-07-31T14:12:29;1.27;;;0.75;;
23596;SDS011;40226;50.874;4.394;2023-07-31T14:14:55;0.52;;;0.43;;
23596;SDS011;40226;50.874;4.394;2023-07-31T14:17:21;0.20;;;0.20;;
23596;SDS011;40226;50.874;4.394;2023-07-31T14:19:46;0.35;;;0.30;;
23596;SDS011;40226;50.874;4.394;2023-07-31T14:22:12;0.57;;;0.57;;
23596;SDS011;40226;50.874;4.394;2023-07-31T14:24:37;0.38;;;0.30;;
23596;SDS011;40226;50.874;4.394;2023-07-31T14:27:03;0.08;;;0.08;;
23596;SDS011;40226;50.874;4.394;2023-07-31T14:29:29;1.05;;;0.90;;
23596;SDS011;40226;50.874;4.394;2023-07-31T14:31:55;0.45;;;0.35;;
23596;SDS011;40226;50.874;4.394;2023-07-31T14:34:20;1.98;;;0.47;;
23596;SDS011;40226;50.874;4.394;2023-07-31T14:36:46;0.30;;;0.30;;
23596;SDS011;40226;50.874;4.394;2023-07-31T14:39:12;0.30;;;0.30;;
23596;SDS011;40226;50.874;4.394;2023-07-31T14:41:37;0.00;;;0.00;;
23596;SDS011;40226;50.874;4.394;2023-07-31T14:44:03;0.82;;;0.55;;
23596;SDS011;40226;50.874;4.394;2023-07-31T14:46:29;0.25;;;0.25;;
23596;SDS011;40226;50.874;4.394;2023-07-31T14:48:54;0.05;;;0.05;;
23596;SDS011;40226;50.874;4.394;2023-07-31T14:51:20;0.60;;;0.60;;
23596;SDS011;40226;50.874;4.394;2023-07-31T14:53:46;0.52;;;0.22;;